Time;durP1;ratioP1;P1;durP2;ratioP2;P2;SDS_P1;SDS_P2;PMS_P1;PMS_P2;Temp;Humidity;BMP_temperature;BMP_pressure;BME280_temperature;BME280_humidity;BME280_pressure;Samples;Min_cycle;Max_cycle;Signal;HPM_P1;HPM_P2
2022/04/14 00:01:48;;;;;;;6.40;6.10;;;;;;;10.33;40.13;101139.19;5064357;28;20104;-64
2022/04/14 00:04:14;;;;;;;6.22;5.93;;;;;;;10.32;40.16;101138.34;5072284;28;20024;-64
2022/04/14 00:06:39;;;;;;;6.57;6.28;;;;;;;10.36;40.13;101134.41;5071846;28;20483;-63
2022/04/14 00:09:05;;;;;;;6.70;6.40;;;;;;;10.34;40.30;101144.31;5065341;28;20020;-64
2022/04/14 00:11:30;;;;;;;5.85;5.65;;;;;;;10.28;40.36;101133.53;5050675;28;20061;-64
2022/04/14 00:13:56;;;;;;;5.80;5.60;;;;;;;10.27;40.80;101140.63;5043314;28;20116;-64
2022/04/14 00:16:22;;;;;;;6.20;5.90;;;;;;;10.30;40.83;101142.16;5051810;28;20058;-64
2022/04/14 00:18:48;;;;;;;6.03;5.82;;;;;;;10.27;40.65;101131.84;5050344;28;20063;-65
2022/04/14 00:21:14;;;;;;;6.20;5.90;;;;;;;10.26;40.99;101151.41;5051845;28;20017;-64
2022/04/14 00:23:39;;;;;;;6.50;6.20;;;;;;;10.22;40.45;101140.28;5050425;28;20036;-64
2022/04/14 00:26:05;;;;;;;6.05;5.85;;;;;;;10.24;41.30;101155.06;5051558;28;20033;-64
2022/04/14 00:28:31;;;;;;;6.45;6.15;;;;;;;10.24;40.56;101149.75;5050783;28;20108;-64
2022/04/14 00:30:59;;;;;;;6.30;6.00;;;;;;;10.32;40.82;101158.75;5051670;28;20443;-63
2022/04/14 00:33:25;;;;;;;6.05;5.82;;;;;;;10.27;40.82;101145.94;5050551;28;20029;-64
2022/04/14 00:35:52;;;;;;;6.40;6.10;;;;;;;10.27;41.22;101148.59;5037691;28;20025;-64
2022/04/14 00:38:17;;;;;;;5.82;5.63;;;;;;;10.28;41.17;101152.91;5031722;28;20413;-64
2022/04/14 00:40:43;;;;;;;6.10;5.90;;;;;;;10.30;41.25;101160.72;5052110;28;20034;-63
2022/04/14 00:43:08;;;;;;;6.03;5.82;;;;;;;10.30;41.32;101152.78;5071619;28;20047;-64
2022/04/14 00:45:34;;;;;;;6.22;5.93;;;;;;;10.28;40.81;101154.72;5071268;28;20020;-63
2022/04/14 00:47:59;;;;;;;6.10;5.82;;;;;;;10.27;41.02;101155.72;5054397;28;20502;-64
2022/04/14 00:50:25;;;;;;;5.97;5.78;;;;;;;10.23;41.39;101164.00;5031599;28;20029;-64
2022/04/14 00:52:51;;;;;;;6.15;5.90;;;;;;;10.21;41.43;101147.41;5060956;28;20497;-64
2022/04/14 00:55:17;;;;;;;6.10;5.85;;;;;;;10.26;42.00;101157.53;5031346;28;20548;-64
2022/04/14 00:57:43;;;;;;;6.45;6.15;;;;;;;10.24;41.94;101156.88;5031458;28;20045;-63
2022/04/14 01:00:09;;;;;;;6.18;5.93;;;;;;;10.23;42.08;101158.69;5047911;28;20104;-64
2022/04/14 01:02:35;;;;;;;6.60;6.30;;;;;;;10.23;42.61;101156.06;5051543;28;20049;-64
2022/04/14 01:05:02;;;;;;;5.93;5.72;;;;;;;10.22;42.19;101159.69;5042327;28;20029;-64
2022/04/14 01:07:29;;;;;;;6.40;6.10;;;;;;;10.20;42.28;101155.47;5038302;28;20096;-64
2022/04/14 01:09:56;;;;;;;5.97;5.78;;;;;;;10.21;42.59;101162.47;5054708;28;20059;-64
2022/04/14 01:12:23;;;;;;;6.00;5.80;;;;;;;10.10;42.35;101152.94;5050110;28;20060;-64
2022/04/14 01:14:49;;;;;;;6.07;5.88;;;;;;;10.13;43.00;101159.75;5031305;28;20038;-64
2022/04/14 01:17:15;;;;;;;6.72;6.43;;;;;;;10.12;43.58;101155.44;5033197;28;20026;-65
2022/04/14 01:19:41;;;;;;;6.35;6.05;;;;;;;10.03;43.09;101148.44;5051909;28;20484;-64
2022/04/14 01:22:11;;;;;;;6.35;6.05;;;;;;;10.06;43.36;101159.56;5050359;28;20033;-64
2022/04/14 01:24:38;;;;;;;6.25;5.95;;;;;;;10.10;43.63;101160.91;5051213;28;20535;-64
2022/04/14 01:27:04;;;;;;;6.20;5.90;;;;;;;10.02;43.87;101160.84;5068983;28;20025;-64
2022/04/14 01:29:31;;;;;;;5.93;5.72;;;;;;;10.03;44.27;101164.34;5072841;28;20020;-64
2022/04/14 01:31:57;;;;;;;6.20;5.93;;;;;;;10.01;44.01;101166.31;5054578;28;20032;-64
2022/04/14 01:34:23;;;;;;;6.20;5.90;;;;;;;9.98;43.51;101167.44;5073928;28;20538;-64
2022/04/14 01:36:48;;;;;;;6.00;5.80;;;;;;;9.99;43.75;101166.47;5066547;28;20033;-64
2022/04/14 01:39:14;;;;;;;5.80;5.60;;;;;;;9.99;43.11;101161.19;5054623;28;20040;-64
2022/04/14 01:41:41;;;;;;;6.50;6.20;;;;;;;9.91;43.08;101159.28;5072719;28;20028;-64
2022/04/14 01:44:07;;;;;;;5.80;5.60;;;;;;;10.02;42.75;101168.81;5056360;28;20104;-64
2022/04/14 01:46:33;;;;;;;6.00;5.80;;;;;;;10.00;42.20;101169.97;5036679;28;20112;-64
2022/04/14 01:48:59;;;;;;;5.97;5.78;;;;;;;10.00;42.61;101162.00;5036957;28;20449;-64
2022/04/14 01:51:28;;;;;;;6.00;5.80;;;;;;;9.98;42.62;101162.13;5035265;28;20057;-63
2022/04/14 01:53:54;;;;;;;6.75;6.45;;;;;;;9.95;42.89;101165.09;5034792;28;20449;-64
2022/04/14 01:56:21;;;;;;;6.03;5.82;;;;;;;9.85;42.79;101153.78;5033207;28;20592;-64
2022/04/14 01:58:47;;;;;;;5.95;5.75;;;;;;;9.91;42.94;101164.56;5034305;28;20485;-63
2022/04/14 02:01:13;;;;;;;6.30;6.00;;;;;;;9.76;43.53;101141.44;5053212;28;20030;-64
2022/04/14 02:03:38;;;;;;;6.00;5.80;;;;;;;9.92;43.14;101160.97;5034198;28;20036;-64
2022/04/14 02:06:04;;;;;;;6.40;6.10;;;;;;;9.91;42.84;101161.09;5033882;28;20060;-64
2022/04/14 02:08:29;;;;;;;5.97;5.78;;;;;;;9.87;42.50;101152.63;5057997;28;20055;-64
2022/04/14 02:10:55;;;;;;;5.90;5.70;;;;;;;9.87;42.59;101160.59;5074062;28;20025;-64
2022/04/14 02:13:20;;;;;;;5.90;5.70;;;;;;;9.88;42.34;101156.94;5059116;28;20013;-64
2022/04/14 02:15:46;;;;;;;6.70;6.40;;;;;;;9.81;43.14;101157.72;5033709;28;20021;-65
2022/04/14 02:18:12;;;;;;;6.20;5.90;;;;;;;9.79;43.15;101165.00;5054585;28;20052;-63
2022/04/14 02:20:37;;;;;;;6.30;6.00;;;;;;;9.78;42.53;101161.50;5035942;28;20431;-64
2022/04/14 02:23:03;;;;;;;6.22;5.93;;;;;;;9.75;43.02;101159.16;5053860;28;20423;-64
2022/04/14 02:25:29;;;;;;;6.20;5.90;;;;;;;9.74;42.63;101164.63;5053968;28;20029;-63
2022/04/14 02:27:54;;;;;;;5.80;5.60;;;;;;;9.71;43.16;101170.22;5042552;28;20029;-64
2022/04/14 02:30:21;;;;;;;6.20;5.90;;;;;;;9.72;42.96;101170.06;5034169;28;20025;-64
2022/04/14 02:32:46;;;;;;;6.47;6.18;;;;;;;9.67;43.31;101165.22;5043739;28;20107;-64
2022/04/14 02:35:12;;;;;;;6.07;5.82;;;;;;;9.68;42.97;101169.53;5054021;28;20021;-64
2022/04/14 02:37:37;;;;;;;6.38;6.07;;;;;;;9.64;42.94;101170.84;5052595;28;20053;-65
2022/04/14 02:40:04;;;;;;;6.07;5.88;;;;;;;9.62;43.06;101167.53;5058059;28;20024;-65
2022/04/14 02:42:30;;;;;;;6.20;5.90;;;;;;;9.54;44.10;101179.84;5042420;28;20087;-64
2022/04/14 02:44:55;;;;;;;6.30;6.00;;;;;;;9.49;44.13;101175.00;5033606;28;20022;-65
2022/04/14 02:47:21;;;;;;;5.90;5.70;;;;;;;9.48;43.99;101180.47;5033599;28;20530;-64
2022/04/14 02:49:46;;;;;;;5.88;5.68;;;;;;;9.41;44.08;101175.78;5043539;28;20051;-64
2022/04/14 02:52:12;;;;;;;6.30;6.00;;;;;;;9.39;44.80;101179.53;5072607;28;20024;-64
2022/04/14 02:54:37;;;;;;;6.30;6.00;;;;;;;9.38;44.29;101180.53;5073360;28;20122;-64
2022/04/14 02:57:09;;;;;;;5.80;5.60;;;;;;;9.35;44.76;101179.03;5034433;28;20041;-64
2022/04/14 02:59:36;;;;;;;5.90;5.70;;;;;;;9.37;44.54;101178.84;5033142;28;20030;-64
2022/04/14 03:02:03;;;;;;;6.10;5.80;;;;;;;9.35;44.81;101170.25;5033409;28;20088;-64
2022/04/14 03:04:30;;;;;;;5.80;5.60;;;;;;;9.35;44.51;101180.84;5033518;28;20104;-65
2022/04/14 03:06:56;;;;;;;6.00;5.80;;;;;;;9.38;44.29;101183.16;5035183;28;20108;-64
2022/04/14 03:09:22;;;;;;;6.00;5.80;;;;;;;9.32;44.53;101189.06;5061301;28;20044;-64
2022/04/14 03:11:48;;;;;;;6.03;5.80;;;;;;;9.28;45.34;101185.91;5033004;28;20021;-64
2022/04/14 03:14:14;;;;;;;6.90;6.60;;;;;;;9.30;44.60;101177.78;5048060;28;20524;-64
2022/04/14 03:16:39;;;;;;;5.85;5.65;;;;;;;9.28;44.54;101180.59;5052822;28;20040;-65
2022/04/14 03:19:05;;;;;;;6.32;6.03;;;;;;;9.28;44.87;101185.91;5056891;28;20075;-64
2022/04/14 03:21:30;;;;;;;6.45;6.15;;;;;;;9.32;44.42;101179.31;5068972;28;20029;-64
2022/04/14 03:23:56;;;;;;;5.90;5.70;;;;;;;9.32;44.60;101181.13;5045624;28;20075;-64
2022/04/14 03:26:21;;;;;;;6.43;6.13;;;;;;;9.29;45.07;101189.38;5032359;28;20036;-65
2022/04/14 03:28:47;;;;;;;6.53;6.22;;;;;;;9.26;45.24;101179.09;5058685;28;20040;-64
2022/04/14 03:31:12;;;;;;;6.47;6.18;;;;;;;9.22;45.24;101180.38;5057878;28;20034;-64
2022/04/14 03:33:38;;;;;;;6.25;5.95;;;;;;;9.16;45.09;101183.59;5054324;28;20550;-64
2022/04/14 03:36:04;;;;;;;6.30;6.00;;;;;;;9.16;44.79;101181.78;5042718;28;20025;-64
2022/04/14 03:38:30;;;;;;;6.30;6.00;;;;;;;9.12;44.56;101185.72;5038702;28;20510;-65
2022/04/14 03:40:56;;;;;;;6.22;5.93;;;;;;;9.17;44.16;101194.03;5070974;28;20024;-64
2022/04/14 03:43:21;;;;;;;6.35;6.05;;;;;;;9.11;44.64;101186.72;5062207;28;20059;-64
2022/04/14 03:45:47;;;;;;;7.13;6.82;;;;;;;9.24;43.67;101181.03;5060119;28;20091;-64
2022/04/14 03:48:12;;;;;;;6.45;6.15;;;;;;;9.38;42.92;101177.88;5053318;28;20484;-64
2022/04/14 03:50:38;;;;;;;6.50;6.20;;;;;;;9.50;43.11;101192.56;5050640;28;20028;-65
2022/04/14 03:53:03;;;;;;;5.90;5.70;;;;;;;9.52;42.83;101195.88;5058859;28;20021;-64
2022/04/14 03:55:29;;;;;;;6.38;6.07;;;;;;;9.57;42.94;101204.22;5070503;28;20028;-65
2022/04/14 03:57:54;;;;;;;6.05;5.82;;;;;;;9.58;42.62;101211.19;5062634;28;20052;-64
2022/04/14 04:00:20;;;;;;;6.47;6.18;;;;;;;9.98;42.17;101204.53;5061141;28;20072;-65
2022/04/14 04:02:45;;;;;;;6.57;6.28;;;;;;;9.95;42.40;101204.88;5059473;28;20483;-63
2022/04/14 04:05:11;;;;;;;6.32;6.03;;;;;;;10.28;41.72;101207.75;5069214;28;20050;-63
2022/04/14 04:07:37;;;;;;;6.38;6.10;;;;;;;10.50;41.39;101213.41;5041130;28;20123;-63
2022/04/14 04:10:04;;;;;;;6.47;6.18;;;;;;;10.90;40.46;101216.41;5054803;28;20429;-64
2022/04/14 04:12:30;;;;;;;6.00;5.80;;;;;;;11.33;39.35;101221.53;5050985;28;20044;-64
2022/04/14 04:14:55;;;;;;;6.40;6.10;;;;;;;11.87;38.39;101216.63;5062130;28;20039;-64
2022/04/14 04:17:21;;;;;;;7.10;6.80;;;;;;;12.80;36.79;101216.13;5051971;28;20019;-63
2022/04/14 04:19:46;;;;;;;6.90;6.60;;;;;;;13.03;36.14;101220.69;5047303;28;20063;-64
2022/04/14 04:22:12;;;;;;;6.60;6.30;;;;;;;13.42;35.08;101216.16;5045105;28;20024;-64
2022/04/14 04:24:38;;;;;;;6.85;6.55;;;;;;;13.18;35.19;101222.44;5067495;28;20028;-65
2022/04/14 04:27:04;;;;;;;6.70;6.40;;;;;;;13.81;34.57;101215.25;5061026;28;20095;-64
2022/04/14 04:29:29;;;;;;;6.35;6.05;;;;;;;13.61;34.71;101222.06;5065632;28;20377;-64
2022/04/14 04:31:55;;;;;;;6.40;6.10;;;;;;;14.42;33.40;101221.34;5062089;28;20094;-64
2022/04/14 04:34:20;;;;;;;6.75;6.45;;;;;;;15.05;32.62;101224.47;5044178;28;20032;-64
2022/04/14 04:36:46;;;;;;;7.20;6.90;;;;;;;15.03;32.03;101221.16;5031260;28;20079;-64
2022/04/14 04:39:11;;;;;;;7.22;6.93;;;;;;;15.73;31.21;101224.03;5031100;28;20493;-65
2022/04/14 04:41:37;;;;;;;7.93;7.57;;;;;;;15.91;30.93;101222.72;5036254;28;20388;-65
2022/04/14 04:44:04;;;;;;;8.00;7.63;;;;;;;15.86;30.68;101227.81;5067341;28;20020;-65
2022/04/14 04:46:30;;;;;;;7.03;6.72;;;;;;;16.45;29.85;101236.34;5058148;28;20033;-65
2022/04/14 04:48:56;;;;;;;7.07;6.78;;;;;;;17.62;28.56;101238.09;5042297;28;20037;-65
2022/04/14 04:51:21;;;;;;;6.68;6.38;;;;;;;17.11;29.03;101246.59;5049925;28;20029;-64
2022/04/14 04:53:47;;;;;;;6.75;6.45;;;;;;;17.08;28.94;101245.16;5071663;28;20027;-65
2022/04/14 04:56:13;;;;;;;6.78;6.47;;;;;;;18.48;27.44;101236.28;5057171;28;20514;-65
2022/04/14 04:58:38;;;;;;;7.28;6.97;;;;;;;18.41;27.36;101235.47;5063196;28;20737;-65
2022/04/14 05:01:04;;;;;;;7.40;7.10;;;;;;;19.41;25.73;101251.31;5047574;28;20025;-65
2022/04/14 05:03:29;;;;;;;6.90;6.60;;;;;;;18.93;26.68;101254.41;5036676;28;20037;-65
2022/04/14 05:05:55;;;;;;;7.15;6.85;;;;;;;20.00;25.20;101258.19;5054008;28;20101;-65
2022/04/14 05:08:20;;;;;;;8.25;7.90;;;;;;;20.55;24.75;101242.19;5055599;28;20108;-66
2022/04/14 05:10:45;;;;;;;7.45;7.15;;;;;;;20.49;24.43;101245.75;5063087;28;20057;-66
2022/04/14 05:13:15;;;;;;;7.30;7.00;;;;;;;20.41;24.67;101242.28;5051671;28;20033;-66
2022/04/14 05:15:41;;;;;;;7.10;6.80;;;;;;;20.78;24.31;101257.69;5048597;28;20057;-66
2022/04/14 05:18:07;;;;;;;7.68;7.38;;;;;;;19.38;25.48;101244.47;5067075;28;20068;-63
2022/04/14 05:20:34;;;;;;;7.20;6.90;;;;;;;21.17;23.59;101256.44;5065519;28;20021;-64
2022/04/14 05:23:00;;;;;;;7.00;6.70;;;;;;;21.84;22.88;101273.38;5074784;28;20108;-65
2022/04/14 05:25:26;;;;;;;7.00;6.70;;;;;;;22.40;22.41;101272.09;5047559;28;20081;-65
2022/04/14 05:27:51;;;;;;;7.20;6.90;;;;;;;22.10;22.40;101268.63;5059343;28;20423;-64
2022/04/14 05:30:17;;;;;;;7.32;7.03;;;;;;;21.82;22.53;101280.06;5053778;28;20016;-65
2022/04/14 05:32:42;;;;;;;7.50;7.20;;;;;;;21.77;22.46;101278.06;5061389;28;20087;-65
2022/04/14 05:35:08;;;;;;;7.05;6.75;;;;;;;22.85;21.43;101276.88;5062390;28;20035;-64
2022/04/14 05:37:35;;;;;;;7.00;6.70;;;;;;;22.63;21.53;101281.25;5066607;28;20047;-66
2022/04/14 05:40:04;;;;;;;7.20;6.90;;;;;;;22.05;23.61;101286.34;5061660;28;20032;-63
2022/04/14 05:42:30;;;;;;;7.32;7.03;;;;;;;21.83;21.97;101285.25;5061356;28;20033;-63
2022/04/14 05:44:55;;;;;;;7.40;7.10;;;;;;;22.38;21.76;101284.19;5043881;28;20029;-63
2022/04/14 05:47:23;;;;;;;7.40;7.10;;;;;;;22.71;21.54;101284.44;5037371;28;20091;-63
2022/04/14 05:49:50;;;;;;;7.20;6.90;;;;;;;23.31;20.71;101285.97;5049351;28;20017;-62
2022/04/14 05:52:16;;;;;;;7.03;6.72;;;;;;;22.99;21.13;101280.16;5052069;28;20070;-63
2022/04/14 05:54:41;;;;;;;7.18;6.88;;;;;;;22.83;21.51;101278.97;5034135;28;20022;-63
2022/04/14 05:57:07;;;;;;;7.22;6.93;;;;;;;23.58;20.34;101288.94;5036988;28;20056;-63
2022/04/14 05:59:32;;;;;;;7.20;6.90;;;;;;;23.82;20.39;101293.19;5053224;28;20028;-63
2022/04/14 06:01:58;;;;;;;7.35;7.05;;;;;;;23.67;20.18;101285.63;5054014;28;20033;-63
2022/04/14 06:04:23;;;;;;;7.32;7.03;;;;;;;25.18;19.60;101290.13;5059045;28;20019;-63
2022/04/14 06:06:49;;;;;;;7.38;7.07;;;;;;;24.87;19.42;101307.06;5053219;28;20484;-63
2022/04/14 06:09:14;;;;;;;7.20;6.90;;;;;;;25.22;18.75;101299.41;5053785;28;20016;-63
2022/04/14 06:11:40;;;;;;;7.10;6.80;;;;;;;25.45;18.61;101287.44;5053477;28;20110;-63
2022/04/14 06:14:05;;;;;;;7.10;6.80;;;;;;;25.11;19.08;101281.34;5055332;28;20020;-62
2022/04/14 06:16:31;;;;;;;7.00;6.70;;;;;;;25.10;18.76;101285.13;5073252;28;20028;-62
2022/04/14 06:18:57;;;;;;;7.20;6.90;;;;;;;24.97;18.84;101296.34;5063365;28;20107;-62
2022/04/14 06:21:23;;;;;;;7.03;6.72;;;;;;;25.26;18.55;101288.84;5056376;28;20021;-63
2022/04/14 06:23:49;;;;;;;7.20;6.90;;;;;;;24.45;19.01;101293.97;5033444;28;20017;-62
2022/04/14 06:26:15;;;;;;;6.90;6.60;;;;;;;24.70;19.35;101297.06;5048937;28;20080;-62
2022/04/14 06:28:42;;;;;;;7.18;6.88;;;;;;;25.29;18.82;101293.78;5033820;28;20025;-62
2022/04/14 06:31:08;;;;;;;7.22;6.93;;;;;;;25.05;18.52;101298.66;5045357;28;20111;-63
2022/04/14 06:33:33;;;;;;;7.05;6.75;;;;;;;25.84;18.29;101300.91;5061113;28;20097;-62
2022/04/14 06:35:59;;;;;;;7.10;6.80;;;;;;;24.67;18.66;101304.88;5046370;28;20055;-63
2022/04/14 06:38:27;;;;;;;7.22;6.93;;;;;;;24.10;18.99;101302.34;5063062;28;20454;-63
2022/04/14 06:40:53;;;;;;;7.32;7.03;;;;;;;25.07;18.56;101301.94;5046723;28;20079;-64
2022/04/14 06:43:18;;;;;;;7.00;6.70;;;;;;;24.18;19.18;101305.47;5035070;28;20021;-63
2022/04/14 06:45:44;;;;;;;7.10;6.80;;;;;;;26.20;17.80;101302.03;5033503;28;20075;-63
2022/04/14 06:48:10;;;;;;;7.18;6.88;;;;;;;24.25;19.00;101294.47;5031809;28;20557;-63
2022/04/14 06:50:35;;;;;;;7.00;6.70;;;;;;;24.84;18.50;101292.13;5032273;28;20045;-63
2022/04/14 06:53:01;;;;;;;6.90;6.60;;;;;;;25.93;18.15;101295.81;5032337;28;20028;-63
2022/04/14 06:55:27;;;;;;;7.10;6.80;;;;;;;25.42;18.36;101285.25;5033347;28;20021;-62
2022/04/14 06:57:53;;;;;;;6.90;6.60;;;;;;;26.63;17.57;101298.31;5032714;28;20079;-64
2022/04/14 07:00:21;;;;;;;7.10;6.80;;;;;;;25.56;17.75;101291.94;5033260;28;20031;-64
2022/04/14 07:02:54;;;;;;;7.10;6.80;;;;;;;26.32;16.95;101291.00;5032931;28;20018;-64
2022/04/14 07:05:22;;;;;;;7.18;6.88;;;;;;;25.59;17.96;101283.25;5032887;28;20030;-63
2022/04/14 07:07:48;;;;;;;7.28;6.97;;;;;;;25.92;17.79;101284.13;5039967;28;20029;-63
2022/04/14 07:10:14;;;;;;;7.07;6.78;;;;;;;25.90;17.44;101292.53;5051100;28;20527;-63
2022/04/14 07:12:40;;;;;;;7.10;6.80;;;;;;;25.69;17.65;101292.56;5052418;28;20060;-64
2022/04/14 07:15:07;;;;;;;6.93;6.63;;;;;;;26.07;17.52;101288.88;5052813;28;20107;-63
2022/04/14 07:17:34;;;;;;;6.95;6.65;;;;;;;26.11;17.73;101282.66;5052682;28;20047;-63
2022/04/14 07:20:03;;;;;;;6.88;6.57;;;;;;;25.83;17.73;101285.69;5052582;28;20029;-63
2022/04/14 07:22:31;;;;;;;6.93;6.63;;;;;;;24.85;18.12;101277.47;5052550;28;20027;-63
2022/04/14 07:24:58;;;;;;;6.70;6.40;;;;;;;26.03;17.18;101283.16;5052417;28;20028;-62
2022/04/14 07:27:23;;;;;;;6.70;6.40;;;;;;;26.03;17.57;101283.16;5046495;28;20025;-63
2022/04/14 07:29:49;;;;;;;6.70;6.40;;;;;;;26.13;17.55;101291.38;5032519;28;20104;-65
2022/04/14 07:32:15;;;;;;;7.00;6.70;;;;;;;26.41;17.28;101290.25;5035612;28;20047;-63
2022/04/14 07:34:41;;;;;;;7.03;6.72;;;;;;;26.13;17.58;101290.56;5072587;28;20020;-63
2022/04/14 07:37:06;;;;;;;7.10;6.80;;;;;;;26.91;16.92;101286.22;5072492;28;20395;-63
2022/04/14 07:39:32;;;;;;;7.10;6.80;;;;;;;26.09;17.40;101282.13;5072425;28;20467;-62
2022/04/14 07:41:57;;;;;;;7.10;6.80;;;;;;;26.89;17.10;101279.41;5072745;28;20036;-63
2022/04/14 07:44:23;;;;;;;7.28;6.97;;;;;;;26.53;17.13;101276.47;5071997;28;20020;-63
2022/04/14 07:46:48;;;;;;;7.10;6.80;;;;;;;25.96;17.08;101265.41;5049293;28;20049;-63
2022/04/14 07:49:14;;;;;;;7.15;6.85;;;;;;;25.39;17.75;101250.44;5032070;28;20049;-63
2022/04/14 07:51:40;;;;;;;7.10;6.80;;;;;;;26.02;17.52;101267.91;5032205;28;20036;-63
2022/04/14 07:54:06;;;;;;;6.93;6.63;;;;;;;26.04;17.10;101273.91;5030708;28;20075;-63
2022/04/14 07:56:33;;;;;;;6.93;6.63;;;;;;;26.17;17.32;101270.75;5031754;28;20045;-63
2022/04/14 07:58:59;;;;;;;7.07;6.78;;;;;;;25.41;17.49;101261.03;5050432;28;20580;-63
2022/04/14 08:01:25;;;;;;;7.28;6.97;;;;;;;26.22;17.77;101280.03;5052229;28;20128;-63
2022/04/14 08:03:51;;;;;;;6.97;6.68;;;;;;;24.94;18.71;101275.94;5051233;28;20036;-63
2022/04/14 08:06:17;;;;;;;6.80;6.50;;;;;;;26.25;17.86;101274.06;5065663;28;20028;-63
2022/04/14 08:08:43;;;;;;;7.00;6.70;;;;;;;23.61;20.15;101280.34;5071634;28;20033;-63
2022/04/14 08:11:10;;;;;;;7.18;6.88;;;;;;;23.79;20.27;101280.13;5056449;28;20017;-63
2022/04/14 08:13:38;;;;;;;7.00;6.70;;;;;;;25.62;18.83;101287.34;5051724;28;20032;-64
2022/04/14 08:16:09;;;;;;;7.30;7.00;;;;;;;24.37;19.76;101287.06;5052032;28;20032;-64
2022/04/14 08:18:39;;;;;;;7.20;6.90;;;;;;;24.33;19.79;101282.41;5048198;28;20017;-64
2022/04/14 08:21:04;;;;;;;6.97;6.68;;;;;;;23.42;20.83;101285.91;5031842;28;20473;-64
2022/04/14 08:23:31;;;;;;;7.05;6.75;;;;;;;24.59;19.72;101283.59;5043048;28;20033;-64
2022/04/14 08:25:57;;;;;;;7.07;6.78;;;;;;;23.16;21.11;101275.66;5051569;28;20032;-63
2022/04/14 08:28:23;;;;;;;7.28;6.97;;;;;;;23.15;21.38;101274.03;5051585;28;20024;-63
2022/04/14 08:30:48;;;;;;;7.32;7.03;;;;;;;24.17;20.40;101275.91;5051682;28;20362;-63
2022/04/14 08:33:16;;;;;;;7.28;6.97;;;;;;;21.66;23.15;101276.13;5044735;28;20028;-64
2022/04/14 08:35:41;;;;;;;7.13;6.82;;;;;;;22.22;22.90;101270.31;5030544;28;20059;-63
2022/04/14 08:38:07;;;;;;;7.43;7.13;;;;;;;22.47;22.73;101275.47;5031982;28;20033;-63
2022/04/14 08:40:39;;;;;;;7.50;7.20;;;;;;;22.02;23.28;101267.06;5035551;28;20033;-63
2022/04/14 08:43:07;;;;;;;7.53;7.22;;;;;;;22.30;23.29;101269.13;5035839;28;20131;-63
2022/04/14 08:45:51;;;;;;;6.90;6.60;;;;;;;21.75;23.96;101269.38;5035639;28;20028;-63
2022/04/14 08:48:20;;;;;;;7.00;6.70;;;;;;;22.20;23.85;101260.78;5035530;28;20033;-62
2022/04/14 08:50:50;;;;;;;7.10;6.80;;;;;;;23.08;23.02;101270.63;5035795;28;20358;-63
2022/04/14 08:53:18;;;;;;;7.15;6.85;;;;;;;22.59;23.84;101267.38;5035272;28;20030;-64
2022/04/14 08:55:44;;;;;;;7.25;6.95;;;;;;;21.75;24.99;101264.78;5035350;28;20025;-63
2022/04/14 08:58:14;;;;;;;7.32;7.03;;;;;;;21.13;25.44;101266.00;5035115;28;20098;-62
2022/04/14 09:00:40;;;;;;;7.50;7.20;;;;;;;21.62;24.76;101275.78;5044458;28;20021;-63
2022/04/14 09:03:06;;;;;;;7.40;7.10;;;;;;;20.66;26.16;101268.41;5054812;28;20507;-63
2022/04/14 09:05:31;;;;;;;7.30;7.00;;;;;;;20.67;26.20;101261.97;5035499;28;20034;-63
2022/04/14 09:07:57;;;;;;;7.38;7.07;;;;;;;19.69;28.03;101264.44;5035037;28;20032;-63
2022/04/14 09:10:22;;;;;;;7.28;6.97;;;;;;;20.81;26.75;101273.44;5053324;28;20043;-63
2022/04/14 09:12:49;;;;;;;7.13;6.82;;;;;;;21.14;26.72;101271.19;5067148;28;20078;-63
2022/04/14 09:15:15;;;;;;;7.47;7.18;;;;;;;19.67;27.69;101264.63;5048401;28;20075;-64
2022/04/14 09:17:40;;;;;;;7.28;6.97;;;;;;;20.45;27.67;101272.34;5035001;28;20037;-64
2022/04/14 09:20:36;;;;;;;7.10;6.80;;;;;;;19.67;27.99;101283.47;5054847;28;20017;-64
2022/04/14 09:23:21;;;;;;;7.45;7.15;;;;;;;20.66;26.98;101274.63;5053830;28;20036;-64
2022/04/14 09:26:13;;;;;;;7.40;7.10;;;;;;;19.45;28.91;101274.03;5054791;28;20029;-64
2022/04/14 09:28:40;;;;;;;6.95;6.65;;;;;;;19.33;29.10;101272.03;5053629;28;20025;-63
2022/04/14 09:31:12;;;;;;;7.35;7.05;;;;;;;19.91;28.69;101279.19;5035077;28;20017;-63
2022/04/14 09:33:46;;;;;;;7.32;7.03;;;;;;;19.56;29.01;101282.28;5060478;28;20028;-64
2022/04/14 09:36:14;;;;;;;7.00;6.70;;;;;;;19.36;29.49;101286.09;5074969;28;20020;-64
2022/04/14 09:38:49;;;;;;;7.20;6.90;;;;;;;19.57;29.29;101283.94;5074729;28;20029;-62
2022/04/14 09:41:50;;;;;;;7.45;7.15;;;;;;;19.40;29.75;101284.66;5074219;28;20028;-63
2022/04/14 09:44:15;;;;;;;7.20;6.90;;;;;;;19.08;29.73;101289.09;5017938;28;20493;-64
2022/04/14 09:46:46;;;;;;;7.20;6.90;;;;;;;18.62;29.82;101282.78;5045501;28;20048;-64
2022/04/14 09:49:18;;;;;;;6.85;6.55;;;;;;;18.57;29.89;101284.44;5042718;28;20024;-64
2022/04/14 09:51:45;;;;;;;7.03;6.72;;;;;;;19.68;28.44;101282.41;5034762;28;20113;-62
2022/04/14 09:54:19;;;;;;;7.60;7.30;;;;;;;18.08;30.54;101277.66;5034269;28;20045;-64
2022/04/14 09:56:48;;;;;;;7.10;6.80;;;;;;;18.38;30.28;101278.88;5041120;28;20041;-63
2022/04/14 09:59:16;;;;;;;6.90;6.60;;;;;;;19.08;29.27;101287.22;5033956;28;20045;-63
2022/04/14 10:01:43;;;;;;;7.50;7.20;;;;;;;19.09;29.71;101280.00;5034387;28;20060;-63
2022/04/14 10:04:28;;;;;;;7.15;6.85;;;;;;;19.09;29.50;101280.81;5034043;28;20477;-63
2022/04/14 10:07:09;;;;;;;7.20;6.90;;;;;;;19.43;29.81;101287.72;5073869;28;20024;-63
2022/04/14 10:09:39;;;;;;;7.50;7.20;;;;;;;18.94;29.66;101273.00;5063801;28;20445;-63
2022/04/14 10:12:20;;;;;;;7.38;7.07;;;;;;;18.78;29.95;101282.34;5050356;28;20030;-63
2022/04/14 10:15:07;;;;;;;7.00;6.70;;;;;;;18.78;29.61;101278.84;5032868;28;20103;-63
2022/04/14 10:17:37;;;;;;;7.10;6.80;;;;;;;18.94;29.02;101273.00;5033919;28;20485;-62
2022/04/14 10:20:07;;;;;;;7.07;6.78;;;;;;;18.03;29.51;101264.81;5053498;28;20037;-62
2022/04/14 10:22:34;;;;;;;7.00;6.70;;;;;;;17.91;29.67;101261.91;5053003;28;20055;-62
2022/04/14 10:25:00;;;;;;;7.25;6.95;;;;;;;18.16;29.55;101266.69;5051456;28;20071;-62
2022/04/14 10:27:27;;;;;;;7.07;6.78;;;;;;;18.18;29.25;101265.44;5033721;28;20070;-63
2022/04/14 10:29:53;;;;;;;7.05;6.75;;;;;;;17.84;30.00;101271.81;5032938;28;20024;-63
2022/04/14 10:32:21;;;;;;;6.93;6.63;;;;;;;18.28;29.96;101281.13;5037399;28;20041;-63
2022/04/14 10:34:46;;;;;;;7.53;7.22;;;;;;;18.15;30.10;101275.78;5073135;28;20050;-63
2022/04/14 10:37:24;;;;;;;6.93;6.63;;;;;;;18.46;30.25;101269.78;5073434;28;20115;-63
2022/04/14 10:39:50;;;;;;;6.80;6.50;;;;;;;18.01;30.04;101271.44;5056187;28;20033;-64
2022/04/14 10:42:21;;;;;;;7.65;7.35;;;;;;;17.29;30.56;101273.72;5033365;28;20029;-64
2022/04/14 10:44:49;;;;;;;7.10;6.80;;;;;;;17.90;30.49;101281.75;5033494;28;20520;-63
2022/04/14 10:47:55;;;;;;;6.97;6.68;;;;;;;18.40;29.77;101279.50;5033309;28;20026;-63
2022/04/14 10:50:32;;;;;;;6.90;6.60;;;;;;;18.43;29.49;101281.75;5033115;28;20037;-63
2022/04/14 10:53:05;;;;;;;7.40;7.10;;;;;;;18.62;29.62;101268.50;5040393;28;20415;-65
2022/04/14 10:55:35;;;;;;;7.00;6.70;;;;;;;17.98;30.09;101266.47;5033068;28;20041;-64
2022/04/14 10:58:01;;;;;;;6.82;6.53;;;;;;;18.00;30.13;101267.09;5033073;28;20060;-64
2022/04/14 11:00:32;;;;;;;6.88;6.57;;;;;;;18.27;29.87;101266.06;5033192;28;20485;-64
2022/04/14 11:03:15;;;;;;;7.00;6.70;;;;;;;18.19;30.03;101272.47;5032698;28;20432;-64
2022/04/14 11:05:46;;;;;;;7.00;6.70;;;;;;;18.20;30.74;101275.97;5084728;28;20047;-63
2022/04/14 11:08:31;;;;;;;7.20;6.90;;;;;;;18.60;30.45;101273.28;5042047;28;20497;-63
2022/04/14 11:11:14;;;;;;;7.03;6.72;;;;;;;18.24;30.76;101274.53;5060724;28;20384;-63
2022/04/14 11:13:52;;;;;;;6.97;6.68;;;;;;;17.95;30.21;101273.91;5072878;28;20054;-62
2022/04/14 11:16:47;;;;;;;7.25;6.95;;;;;;;18.37;29.74;101281.78;5072623;28;20119;-63
2022/04/14 11:19:22;;;;;;;6.90;6.60;;;;;;;18.52;29.05;101278.88;5060029;28;20103;-64
2022/04/14 11:22:08;;;;;;;6.90;6.60;;;;;;;19.02;28.27;101274.63;5046170;28;20120;-62
2022/04/14 11:24:36;;;;;;;7.43;7.13;;;;;;;18.48;28.91;101275.75;5052613;28;20492;-62
2022/04/14 11:27:12;;;;;;;7.43;7.13;;;;;;;17.73;30.06;101280.47;5053024;28;20029;-63
2022/04/14 11:29:39;;;;;;;7.05;6.75;;;;;;;18.13;29.40;101275.97;5052708;28;20525;-64